createdAt,value
2022-11-22T00:00:56.910Z,15.00
2022-11-22T00:03:23.441Z,15.82
2022-11-22T00:05:49.943Z,16.13
2022-11-22T00:08:16.582Z,18.23
2022-11-22T00:10:43.132Z,16.10
2022-11-22T00:13:09.889Z,19.83
2022-11-22T00:15:36.499Z,14.73
2022-11-22T00:18:05.091Z,15.45
2022-11-22T00:20:31.702Z,14.80
2022-11-22T00:22:58.450Z,15.05
2022-11-22T00:25:25.179Z,18.83
2022-11-22T00:27:54.288Z,14.35
2022-11-22T00:30:25.663Z,14.65
2022-11-22T00:32:54.639Z,15.02
2022-11-22T00:35:25.982Z,19.20
2022-11-22T00:37:52.476Z,14.32
2022-11-22T00:40:24.275Z,15.73
2022-11-22T00:42:50.814Z,14.88
2022-11-22T00:45:21.853Z,15.98
2022-11-22T00:47:53.283Z,15.40
2022-11-22T00:50:19.873Z,15.20
2022-11-22T00:52:46.389Z,16.45
2022-11-22T00:55:12.904Z,15.13
2022-11-22T00:57:41.542Z,14.10
2022-11-22T01:00:11.543Z,14.45
2022-11-22T01:02:41.693Z,12.50
2022-11-22T01:05:13.474Z,13.30
2022-11-22T01:07:40.180Z,15.18
2022-11-22T01:10:07.046Z,14.43
2022-11-22T01:12:35.886Z,14.27
2022-11-22T01:15:05.669Z,14.05
2022-11-22T01:17:35.191Z,12.50
2022-11-22T01:20:01.931Z,14.68
2022-11-22T01:22:30.889Z,13.30
2022-11-22T01:24:59.682Z,13.63
2022-11-22T01:27:26.354Z,12.25
2022-11-22T01:29:55.951Z,12.02
2022-11-22T01:32:22.488Z,11.18
2022-11-22T01:34:53.590Z,13.00
2022-11-22T01:37:20.199Z,12.25
2022-11-22T01:39:49.233Z,13.43
2022-11-22T01:42:16.032Z,13.18
2022-11-22T01:44:43.735Z,13.77
2022-11-22T01:47:12.004Z,14.70
2022-11-22T01:49:54.032Z,13.40
2022-11-22T01:52:25.705Z,13.00
2022-11-22T01:55:03.151Z,15.02
2022-11-22T01:57:34.241Z,15.43
2022-11-22T02:00:13.855Z,14.45
2022-11-22T02:02:43.638Z,12.20
2022-11-22T02:05:18.031Z,15.75
2022-11-22T02:07:44.570Z,13.00
2022-11-22T02:10:11.685Z,12.68
2022-11-22T02:12:39.261Z,11.70
2022-11-22T02:15:07.294Z,14.05
2022-11-22T02:17:34.283Z,15.77
2022-11-22T02:20:00.912Z,14.85
2022-11-22T02:23:03.586Z,15.70
2022-11-22T02:25:37.784Z,13.48
2022-11-22T02:28:07.546Z,14.32
2022-11-22T02:30:36.577Z,13.65
2022-11-22T02:33:06.652Z,13.35
2022-11-22T02:35:33.848Z,13.18
2022-11-22T02:38:03.758Z,13.35
2022-11-22T02:40:38.179Z,12.13
2022-11-22T02:43:17.673Z,13.82
2022-11-22T02:45:44.483Z,14.40
2022-11-22T02:48:16.390Z,14.27
2022-11-22T02:50:45.783Z,12.90
2022-11-22T02:53:15.226Z,13.60
2022-11-22T02:55:41.873Z,13.68
2022-11-22T02:58:10.901Z,14.10
2022-11-22T03:00:39.305Z,13.75
2022-11-22T03:03:06.178Z,13.20
2022-11-22T03:05:35.415Z,12.63
2022-11-22T03:08:06.707Z,12.70
2022-11-22T03:10:35.497Z,11.77
2022-11-22T03:13:01.990Z,14.60
2022-11-22T03:15:30.708Z,16.50
2022-11-22T03:18:05.065Z,14.82
2022-11-22T03:20:33.172Z,14.70
2022-11-22T03:23:07.270Z,14.30
2022-11-22T03:25:39.704Z,13.95
2022-11-22T03:28:08.903Z,14.82
2022-11-22T03:30:42.147Z,15.02
2022-11-22T03:33:08.844Z,13.48
2022-11-22T03:35:37.454Z,15.25
2022-11-22T03:38:05.775Z,14.35
2022-11-22T03:40:32.442Z,14.27
2022-11-22T03:43:05.334Z,14.00
2022-11-22T03:45:34.082Z,13.13
2022-11-22T03:48:00.633Z,13.43
2022-11-22T03:50:27.227Z,14.00
2022-11-22T03:52:56.131Z,14.75
2022-11-22T03:55:22.633Z,14.40
2022-11-22T03:57:53.687Z,16.15
2022-11-22T04:00:20.271Z,14.27
2022-11-22T04:02:46.763Z,13.20
2022-11-22T04:05:13.422Z,13.23
2022-11-22T04:07:40.121Z,13.70
2022-11-22T04:10:07.430Z,14.23
2022-11-22T04:12:34.309Z,12.60
2022-11-22T04:15:06.757Z,14.65
2022-11-22T04:17:40.494Z,14.52
2022-11-22T04:20:39.567Z,13.95
2022-11-22T04:23:09.085Z,12.75
2022-11-22T04:25:42.811Z,14.70
2022-11-22T04:28:11.369Z,16.67
2022-11-22T04:30:56.933Z,14.32
2022-11-22T04:33:26.287Z,16.40
2022-11-22T04:38:22.592Z,13.95
2022-11-22T04:43:44.822Z,13.27
2022-11-22T04:46:12.598Z,14.45
2022-11-22T04:48:43.969Z,13.40
2022-11-22T04:51:33.232Z,12.88
2022-11-22T04:54:00.032Z,13.15
2022-11-22T04:56:28.768Z,13.18
2022-11-22T04:58:57.937Z,13.18
2022-11-22T05:01:24.556Z,12.25
2022-11-22T05:03:53.686Z,12.45
2022-11-22T05:06:20.234Z,13.45
2022-11-22T05:08:46.759Z,11.85
2022-11-22T05:11:18.359Z,11.95
2022-11-22T05:13:45.181Z,12.55
2022-11-22T05:16:17.307Z,11.43
2022-11-22T05:18:59.159Z,11.02
2022-11-22T05:21:30.970Z,11.68
2022-11-22T05:23:57.528Z,11.73
2022-11-22T05:26:35.661Z,11.30
2022-11-22T05:29:09.860Z,12.48
2022-11-22T05:31:37.920Z,11.73
2022-11-22T05:34:07.052Z,12.23
2022-11-22T05:36:36.302Z,11.75
2022-11-22T05:39:03.367Z,13.20
2022-11-22T05:41:32.200Z,12.50
2022-11-22T05:43:58.888Z,11.80
2022-11-22T05:46:31.986Z,12.98
2022-11-22T05:49:00.990Z,10.77
2022-11-22T05:51:34.595Z,11.65
2022-11-22T05:54:04.490Z,12.80
2022-11-22T05:56:31.080Z,12.23
2022-11-22T05:58:57.865Z,11.73
2022-11-22T06:01:26.575Z,11.38
2022-11-22T06:03:54.087Z,11.90
2022-11-22T06:06:21.526Z,12.75
2022-11-22T06:08:51.640Z,12.18
2022-11-22T06:11:25.608Z,11.60
2022-11-22T06:14:00.881Z,11.18
2022-11-22T06:16:27.620Z,11.75
2022-11-22T06:19:13.300Z,11.98
2022-11-22T06:21:39.857Z,11.25
2022-11-22T06:24:06.924Z,11.98
2022-11-22T06:26:39.087Z,12.07
2022-11-22T06:29:08.270Z,11.82
2022-11-22T06:31:37.295Z,12.10
2022-11-22T06:34:06.840Z,11.52
2022-11-22T06:36:34.649Z,11.07
2022-11-22T06:39:02.860Z,10.38
2022-11-22T06:41:33.958Z,10.50
2022-11-22T06:44:09.311Z,9.93
2022-11-22T06:46:39.406Z,9.93
2022-11-22T06:49:06.025Z,10.02
2022-11-22T06:51:33.367Z,10.40
2022-11-22T06:54:02.320Z,10.68
2022-11-22T06:56:33.713Z,9.50
2022-11-22T06:59:03.918Z,9.90
2022-11-22T07:01:36.404Z,11.52
2022-11-22T07:04:04.011Z,11.63
2022-11-22T07:06:32.863Z,10.85
2022-11-22T07:09:04.356Z,10.60
2022-11-22T07:11:32.354Z,10.77
2022-11-22T07:14:08.819Z,11.32
2022-11-22T07:16:37.633Z,10.05
2022-11-22T07:19:09.482Z,10.63
2022-11-22T07:21:37.486Z,11.35
2022-11-22T07:24:05.326Z,11.25
2022-11-22T07:26:34.428Z,11.07
2022-11-22T07:29:01.134Z,11.15
2022-11-22T07:31:30.985Z,11.13
2022-11-22T07:33:58.232Z,10.80
2022-11-22T07:36:25.341Z,10.30
2022-11-22T07:38:51.922Z,11.95
2022-11-22T07:41:22.284Z,10.63
2022-11-22T07:43:53.370Z,10.23
2022-11-22T07:46:31.217Z,10.63
2022-11-22T07:49:02.026Z,11.07
2022-11-22T07:51:31.168Z,10.73
2022-11-22T07:53:58.546Z,10.55
2022-11-22T07:56:27.851Z,12.00
2022-11-22T07:58:55.268Z,10.35
2022-11-22T08:01:21.895Z,11.75
2022-11-22T08:03:48.514Z,10.52
2022-11-22T08:06:19.940Z,10.45
2022-11-22T08:08:46.592Z,10.43
2022-11-22T08:11:15.592Z,10.68
2022-11-22T08:13:44.768Z,12.15
2022-11-22T08:16:19.269Z,10.52
2022-11-22T08:18:48.452Z,10.68
2022-11-22T08:21:18.817Z,10.88
2022-11-22T08:23:46.569Z,10.60
2022-11-22T08:26:14.829Z,11.20
2022-11-22T08:28:44.703Z,11.15
2022-11-22T08:31:15.194Z,11.05
2022-11-22T08:33:41.851Z,10.00
2022-11-22T08:36:11.142Z,11.38
2022-11-22T08:38:37.791Z,11.52
2022-11-22T08:41:06.530Z,10.50
2022-11-22T08:43:33.439Z,11.75
2022-11-22T08:46:02.879Z,10.63
2022-11-22T08:48:38.925Z,10.00
2022-11-22T08:51:07.908Z,10.38
2022-11-22T08:53:36.582Z,11.00
2022-11-22T08:56:05.103Z,11.30
2022-11-22T08:58:33.245Z,10.65
2022-11-22T09:01:12.407Z,10.73
2022-11-22T09:03:40.277Z,8.85
2022-11-22T09:09:22.113Z,10.40
2022-11-22T09:11:44.038Z,9.95
2022-11-22T09:14:10.550Z,9.73
2022-11-22T09:16:41.910Z,10.07
2022-11-22T09:19:08.506Z,10.63
2022-11-22T09:21:37.808Z,9.80
2022-11-22T09:26:30.954Z,10.23
2022-11-22T09:28:59.592Z,9.63
2022-11-22T09:31:26.139Z,10.45
2022-11-22T09:33:52.970Z,10.85
2022-11-22T09:36:26.534Z,10.32
2022-11-22T09:38:53.488Z,10.48
2022-11-22T09:41:28.838Z,10.65
2022-11-22T09:44:33.003Z,10.60
2022-11-22T09:47:11.350Z,11.88
2022-11-22T09:49:52.903Z,11.52
2022-11-22T09:52:35.020Z,10.73
2022-11-22T09:55:17.766Z,11.02
2022-11-22T09:58:13.146Z,12.48
2022-11-22T10:00:46.510Z,12.60
2022-11-22T10:03:24.861Z,11.25
2022-11-22T10:05:54.430Z,11.85
2022-11-22T10:08:39.533Z,11.88
2022-11-22T10:11:30.972Z,12.30
2022-11-22T10:14:15.736Z,11.48
2022-11-22T10:16:52.868Z,12.20
2022-11-22T10:20:06.405Z,11.35
2022-11-22T10:22:35.114Z,12.43
2022-11-22T10:25:29.983Z,12.25
2022-11-22T10:28:07.906Z,11.63
2022-11-22T10:30:41.108Z,12.15
2022-11-22T10:33:18.359Z,12.98
2022-11-22T10:36:08.012Z,10.95
2022-11-22T10:38:59.524Z,12.18
2022-11-22T10:41:50.567Z,11.73
2022-11-22T10:44:20.048Z,11.23
2022-11-22T10:47:16.653Z,13.13
2022-11-22T10:50:24.725Z,12.15
2022-11-22T10:53:10.085Z,11.75
2022-11-22T10:56:18.554Z,12.45
2022-11-22T10:59:28.412Z,12.60
2022-11-22T11:02:19.817Z,11.68
2022-11-22T11:04:47.692Z,13.15
2022-11-22T11:07:20.979Z,13.30
2022-11-22T11:13:14.672Z,13.85
2022-11-22T11:15:55.556Z,12.63
2022-11-22T11:18:32.748Z,12.75
2022-11-22T11:21:02.111Z,13.55
2022-11-22T11:23:31.052Z,13.82
2022-11-22T11:26:15.052Z,13.20
2022-11-22T11:28:44.043Z,14.50
2022-11-22T11:31:13.922Z,12.55
2022-11-22T11:33:41.721Z,13.00
2022-11-22T11:36:16.379Z,14.27
2022-11-22T11:38:45.127Z,12.73
2022-11-22T11:41:32.819Z,12.27
2022-11-22T11:44:06.762Z,12.35
2022-11-22T11:46:39.367Z,12.13
2022-11-22T11:49:23.345Z,13.77
2022-11-22T11:51:55.643Z,13.35
2022-11-22T11:54:48.343Z,13.57
2022-11-22T11:57:24.031Z,12.50
2022-11-22T11:59:52.346Z,13.18
2022-11-22T12:02:29.836Z,13.85
2022-11-22T12:04:57.988Z,13.20
2022-11-22T12:07:38.342Z,14.60
2022-11-22T12:10:43.174Z,14.52
2022-11-22T12:13:16.419Z,13.98
2022-11-22T12:15:52.830Z,14.65
2022-11-22T12:18:37.359Z,14.60
2022-11-22T12:21:13.862Z,15.50
2022-11-22T12:23:47.937Z,15.38
2022-11-22T12:26:17.201Z,15.63
2022-11-22T12:28:44.247Z,13.18
2022-11-22T12:31:39.583Z,14.85
2022-11-22T12:34:17.278Z,14.02
2022-11-22T12:36:55.689Z,14.52
2022-11-22T12:39:28.110Z,13.50
2022-11-22T12:42:04.371Z,14.95
2022-11-22T12:44:39.040Z,15.38
2022-11-22T12:47:16.467Z,15.18
2022-11-22T12:49:47.874Z,14.45
2022-11-22T12:52:25.974Z,14.93
2022-11-22T12:55:14.385Z,14.93
2022-11-22T12:57:43.017Z,16.00
2022-11-22T13:00:24.203Z,14.15
2022-11-22T13:03:11.161Z,15.48
2022-11-22T13:05:47.056Z,16.90
2022-11-22T13:08:18.583Z,14.20
2022-11-22T13:10:45.054Z,16.02
2022-11-22T13:13:21.579Z,15.98
2022-11-22T13:15:51.371Z,13.80
2022-11-22T13:18:18.081Z,13.80
2022-11-22T13:20:59.486Z,13.60
2022-11-22T13:23:44.357Z,13.55
2022-11-22T13:26:19.518Z,14.43
2022-11-22T13:28:50.294Z,14.10
2022-11-22T13:31:19.573Z,13.50
2022-11-22T13:36:29.389Z,13.25
2022-11-22T13:39:07.910Z,13.70
2022-11-22T13:41:34.360Z,12.13
2022-11-22T13:44:22.673Z,12.10
2022-11-22T13:46:55.204Z,11.00
2022-11-22T13:49:51.467Z,10.95
2022-11-22T13:52:18.016Z,11.50
2022-11-22T13:54:47.789Z,11.38
2022-11-22T13:57:20.429Z,11.20
2022-11-22T14:00:08.053Z,10.57
2022-11-22T14:02:40.306Z,11.05
2022-11-22T14:05:39.912Z,10.30
2022-11-22T14:08:28.491Z,11.07
2022-11-22T14:10:54.939Z,11.98
2022-11-22T14:13:48.291Z,13.10
2022-11-22T14:16:33.025Z,11.77
2022-11-22T14:19:18.623Z,13.23
2022-11-22T14:21:51.658Z,11.75
2022-11-22T14:24:49.415Z,12.43
2022-11-22T14:27:26.364Z,10.95
2022-11-22T14:30:11.606Z,10.35
2022-11-22T14:32:46.987Z,10.82
2022-11-22T14:35:18.842Z,12.25
2022-11-22T14:38:01.356Z,11.02
2022-11-22T14:40:39.181Z,11.13
2022-11-22T14:43:25.229Z,11.48
2022-11-22T14:46:30.466Z,11.63
2022-11-22T14:49:12.086Z,11.90
2022-11-22T14:51:40.032Z,11.50
2022-11-22T14:54:21.103Z,13.43
2022-11-22T14:56:48.502Z,12.48
2022-11-22T14:59:53.148Z,11.85
2022-11-22T15:02:50.542Z,11.00
2022-11-22T15:09:13.964Z,11.07
2022-11-22T15:09:23.702Z,10.82
2022-11-22T15:11:42.621Z,12.13
2022-11-22T15:14:27.882Z,11.32
2022-11-22T15:57:27.386Z,10.93
2022-11-22T15:59:55.036Z,10.75
2022-11-22T16:02:22.467Z,10.73
2022-11-22T16:06:06.252Z,11.65
2022-11-22T16:07:48.451Z,11.82
2022-11-22T16:10:24.996Z,11.45
2022-11-22T16:12:52.745Z,11.65
2022-11-22T16:15:42.265Z,11.30
2022-11-22T16:18:20.719Z,11.63
2022-11-22T16:21:07.213Z,10.90
2022-11-22T16:23:35.341Z,11.73
2022-11-22T16:26:29.399Z,12.35
2022-11-22T16:29:18.128Z,12.57
2022-11-22T16:31:47.194Z,11.07
2022-11-22T16:34:14.671Z,12.10
2022-11-22T16:36:41.336Z,11.32
2022-11-22T16:39:07.817Z,10.43
2022-11-22T16:41:37.491Z,11.35
2022-11-22T16:44:16.409Z,11.32
2022-11-22T16:46:43.140Z,11.23
2022-11-22T16:49:22.487Z,9.75
2022-11-22T16:51:54.800Z,10.10
2022-11-22T16:54:23.811Z,11.77
2022-11-22T16:56:50.447Z,11.52
2022-11-22T16:59:16.940Z,11.95
2022-11-22T17:01:47.056Z,11.45
2022-11-22T17:04:22.378Z,10.00
2022-11-22T17:06:51.224Z,10.98
2022-11-22T17:09:18.184Z,10.90
2022-11-22T17:11:48.383Z,10.95
2022-11-22T17:14:16.527Z,10.35
2022-11-22T17:16:43.437Z,10.10
2022-11-22T17:19:30.365Z,9.55
2022-11-22T17:21:56.812Z,10.27
2022-11-22T17:24:23.919Z,10.10
2022-11-22T17:26:52.587Z,10.25
2022-11-22T17:29:43.311Z,10.45
2022-11-22T17:32:10.291Z,9.23
2022-11-22T17:34:36.779Z,10.38
2022-11-22T17:37:06.023Z,9.27
2022-11-22T17:42:01.758Z,8.68
2022-11-22T17:44:28.238Z,9.75
2022-11-22T17:46:55.137Z,9.95
2022-11-22T17:49:21.767Z,9.48
2022-11-22T17:51:48.327Z,8.95
2022-11-22T17:54:15.752Z,9.20
2022-11-22T17:56:42.315Z,8.98
2022-11-22T17:59:08.851Z,10.65
2022-11-22T18:01:37.673Z,9.35
2022-11-22T18:04:06.714Z,8.80
2022-11-22T18:06:38.120Z,9.30
2022-11-22T18:09:06.906Z,9.25
2022-11-22T18:11:33.423Z,8.15
2022-11-22T18:13:59.948Z,9.63
2022-11-22T18:16:30.109Z,8.90
2022-11-22T18:18:58.270Z,10.45
2022-11-22T18:21:31.977Z,10.15
2022-11-22T18:24:03.878Z,8.88
2022-11-22T18:26:41.073Z,7.55
2022-11-22T18:32:03.589Z,9.23
2022-11-22T18:34:32.936Z,9.20
2022-11-22T18:39:51.431Z,9.68
2022-11-22T18:42:22.517Z,9.75
2022-11-22T18:44:51.723Z,8.73
2022-11-22T18:47:18.239Z,9.57
2022-11-22T18:49:49.704Z,9.73
2022-11-22T18:52:17.942Z,9.48
2022-11-22T18:54:47.333Z,8.85
2022-11-22T18:57:14.012Z,10.15
2022-11-22T18:59:40.561Z,9.35
2022-11-22T19:02:09.596Z,10.48
2022-11-22T19:04:36.131Z,9.70
2022-11-22T19:07:02.854Z,8.10
2022-11-22T19:09:31.760Z,9.75
2022-11-22T19:12:00.692Z,9.48
2022-11-22T19:14:30.429Z,9.65
2022-11-22T19:16:59.433Z,9.23
2022-11-22T19:19:26.099Z,9.90
2022-11-22T19:21:52.742Z,9.23
2022-11-22T19:24:19.218Z,9.13
2022-11-22T19:26:45.894Z,8.90
2022-11-22T19:29:14.983Z,7.43
2022-11-22T19:31:43.844Z,8.60
2022-11-22T19:34:13.455Z,8.45
2022-11-22T19:36:40.727Z,9.27
2022-11-22T19:39:11.410Z,9.73
2022-11-22T19:41:40.098Z,8.57
2022-11-22T19:44:06.674Z,8.85
2022-11-22T19:46:36.304Z,10.93
2022-11-22T19:49:02.813Z,9.25
2022-11-22T19:51:31.035Z,9.63
2022-11-22T19:54:00.009Z,9.75
2022-11-22T19:56:31.064Z,9.82
2022-11-22T19:58:59.734Z,9.48
2022-11-22T20:01:27.820Z,10.40
2022-11-22T20:04:00.443Z,10.35
2022-11-22T20:06:29.990Z,10.20
2022-11-22T20:09:11.333Z,9.95
2022-11-22T20:11:39.746Z,10.15
2022-11-22T20:14:06.868Z,9.60
2022-11-22T20:16:33.919Z,11.15
2022-11-22T20:19:05.274Z,9.18
2022-11-22T20:21:33.182Z,9.73
2022-11-22T20:24:03.090Z,10.45
2022-11-22T20:26:35.130Z,9.55
2022-11-22T20:29:07.429Z,10.38
2022-11-22T20:31:38.497Z,10.63
2022-11-22T20:34:05.803Z,10.43
2022-11-22T20:36:35.006Z,10.10
2022-11-22T20:39:10.074Z,11.07
2022-11-22T20:44:11.751Z,9.02
2022-11-22T20:46:38.402Z,10.68
2022-11-22T20:49:07.568Z,10.05
2022-11-22T20:51:39.781Z,10.75
2022-11-22T20:54:09.796Z,9.02
2022-11-22T20:56:37.284Z,10.50
2022-11-22T20:59:04.642Z,10.02
2022-11-22T21:01:34.042Z,9.95
2022-11-22T21:04:00.842Z,9.43
2022-11-22T21:06:32.705Z,10.00
2022-11-22T21:09:01.566Z,10.48
2022-11-22T21:11:32.059Z,9.75
2022-11-22T21:13:58.805Z,10.38
2022-11-22T21:16:29.854Z,10.40
2022-11-22T21:19:05.809Z,10.65
2022-11-22T21:21:35.808Z,11.32
2022-11-22T21:24:06.375Z,10.60
2022-11-22T21:26:33.909Z,10.25
2022-11-22T21:29:03.344Z,10.18
2022-11-22T21:31:32.237Z,11.48
2022-11-22T21:34:03.661Z,11.38
2022-11-22T21:36:30.749Z,10.80
2022-11-22T21:38:57.346Z,9.40
2022-11-22T21:41:44.129Z,10.38
2022-11-22T21:44:15.387Z,10.23
2022-11-22T21:46:44.327Z,8.88
2022-11-22T21:49:10.934Z,11.35
2022-11-22T21:51:43.983Z,10.70
2022-11-22T21:54:10.757Z,10.68
2022-11-22T21:56:37.352Z,10.48
2022-11-22T21:59:06.111Z,10.65
2022-11-22T22:01:35.221Z,11.13
2022-11-22T22:04:04.655Z,10.15
2022-11-22T22:06:33.450Z,11.02
2022-11-22T22:09:02.942Z,10.27
2022-11-22T22:11:31.958Z,11.70
2022-11-22T22:14:00.836Z,10.40
2022-11-22T22:16:27.848Z,9.88
2022-11-22T22:18:54.616Z,10.85
2022-11-22T22:21:21.572Z,12.07
2022-11-22T22:23:48.276Z,11.98
2022-11-22T22:26:17.431Z,10.57
2022-11-22T22:28:46.466Z,11.13
2022-11-22T22:31:24.526Z,11.23
2022-11-22T22:33:54.369Z,11.63
2022-11-22T22:36:22.439Z,11.20
2022-11-22T22:38:49.747Z,10.82
2022-11-22T22:41:17.060Z,11.75
2022-11-22T22:43:46.766Z,11.75
2022-11-22T22:46:21.774Z,11.25
2022-11-22T22:48:49.799Z,10.75
2022-11-22T22:51:27.490Z,12.93
2022-11-22T22:54:02.252Z,12.60
2022-11-22T22:56:33.163Z,10.88
2022-11-22T22:59:02.401Z,11.93
2022-11-22T23:04:02.005Z,12.13
2022-11-22T23:06:31.446Z,12.10
2022-11-22T23:08:58.870Z,12.48
2022-11-22T23:11:46.604Z,10.65
2022-11-22T23:16:43.345Z,14.02
2022-11-22T23:19:12.844Z,11.50
2022-11-22T23:21:40.303Z,11.52
2022-11-22T23:24:10.097Z,11.73
2022-11-22T23:26:39.141Z,12.00
2022-11-22T23:29:10.712Z,11.90
2022-11-22T23:31:40.623Z,13.32
2022-11-22T23:34:11.121Z,13.10
2022-11-22T23:36:41.133Z,12.95
2022-11-22T23:39:08.961Z,13.27
2022-11-22T23:41:38.166Z,13.13
2022-11-22T23:44:10.073Z,12.60
2022-11-22T23:46:39.312Z,12.98
2022-11-22T23:49:06.461Z,11.48
2022-11-22T23:51:35.027Z,11.90
2022-11-22T23:54:04.425Z,12.73
2022-11-22T23:56:34.861Z,13.20
2022-11-22T23:59:04.993Z,12.80
